sensor_id;sensor_type;location;lat;lon;timestamp;pressure;altitude;pressure_sealevel;temperature;humidity
64298;BME280;50639;53.270;7.956;2023-04-07T00:00:50;101568.41;;;8.19;65.66
64298;BME280;50639;53.270;7.956;2023-04-07T00:03:15;101565.13;;;8.25;65.44
64298;BME280;50639;53.270;7.956;2023-04-07T00:05:41;101561.41;;;8.18;67.56
64298;BME280;50639;53.270;7.956;2023-04-07T00:08:06;101564.00;;;8.10;66.75
64298;BME280;50639;53.270;7.956;2023-04-07T00:10:32;101558.59;;;8.20;66.23
64298;BME280;50639;53.270;7.956;2023-04-07T00:12:57;101555.47;;;8.24;66.04
64298;BME280;50639;53.270;7.956;2023-04-07T00:15:23;101561.47;;;8.26;66.39
64298;BME280;50639;53.270;7.956;2023-04-07T00:17:48;101557.78;;;8.27;66.41
64298;BME280;50639;53.270;7.956;2023-04-07T00:20:13;101557.44;;;8.22;66.10
64298;BME280;50639;53.270;7.956;2023-04-07T00:22:39;101550.28;;;8.23;66.24
64298;BME280;50639;53.270;7.956;2023-04-07T00:25:05;101564.44;;;8.23;65.94
64298;BME280;50639;53.270;7.956;2023-04-07T00:27:30;101559.28;;;8.22;66.26
64298;BME280;50639;53.270;7.956;2023-04-07T00:29:56;101566.13;;;8.24;65.66
64298;BME280;50639;53.270;7.956;2023-04-07T00:32:21;101564.59;;;8.22;66.36
64298;BME280;50639;53.270;7.956;2023-04-07T00:34:47;101563.56;;;8.15;66.98
64298;BME280;50639;53.270;7.956;2023-04-07T00:37:12;101559.66;;;8.09;66.72
64298;BME280;50639;53.270;7.956;2023-04-07T00:39:38;101556.66;;;8.04;67.23
64298;BME280;50639;53.270;7.956;2023-04-07T00:42:03;101555.31;;;8.00;67.51
64298;BME280;50639;53.270;7.956;2023-04-07T00:44:31;101553.25;;;7.94;67.71
64298;BME280;50639;53.270;7.956;2023-04-07T00:46:57;101551.75;;;7.91;67.89
64298;BME280;50639;53.270;7.956;2023-04-07T00:49:23;101552.91;;;7.89;67.05
64298;BME280;50639;53.270;7.956;2023-04-07T00:51:49;101557.53;;;7.87;67.84
64298;BME280;50639;53.270;7.956;2023-04-07T00:54:17;101552.22;;;7.87;67.80
64298;BME280;50639;53.270;7.956;2023-04-07T00:56:42;101551.16;;;7.80;68.05
64298;BME280;50639;53.270;7.956;2023-04-07T00:59:08;101554.13;;;7.77;67.92
64298;BME280;50639;53.270;7.956;2023-04-07T01:01:46;101547.59;;;7.71;67.96
64298;BME280;50639;53.270;7.956;2023-04-07T01:04:32;101551.41;;;7.69;67.90
64298;BME280;50639;53.270;7.956;2023-04-07T01:07:05;101548.06;;;7.67;67.43
64298;BME280;50639;53.270;7.956;2023-04-07T01:09:57;101553.31;;;7.59;68.61
64298;BME280;50639;53.270;7.956;2023-04-07T01:12:56;101557.28;;;7.54;68.95
64298;BME280;50639;53.270;7.956;2023-04-07T01:15:29;101553.09;;;7.52;68.50
64298;BME280;50639;53.270;7.956;2023-04-07T01:18:00;101560.38;;;7.50;68.38
64298;BME280;50639;53.270;7.956;2023-04-07T01:20:31;101553.22;;;7.50;68.00
64298;BME280;50639;53.270;7.956;2023-04-07T01:23:04;101558.25;;;7.53;68.00
64298;BME280;50639;53.270;7.956;2023-04-07T01:28:48;101558.25;;;7.53;68.88
64298;BME280;50639;53.270;7.956;2023-04-07T01:31:21;101557.13;;;7.56;68.30
64298;BME280;50639;53.270;7.956;2023-04-07T01:33:48;101563.94;;;7.59;68.31
64298;BME280;50639;53.270;7.956;2023-04-07T01:36:15;101556.78;;;7.59;68.38
64298;BME280;50639;53.270;7.956;2023-04-07T01:38:42;101562.66;;;7.63;68.47
64298;BME280;50639;53.270;7.956;2023-04-07T01:41:08;101566.66;;;7.67;68.17
64298;BME280;50639;53.270;7.956;2023-04-07T01:43:36;101557.56;;;7.69;68.53
64298;BME280;50639;53.270;7.956;2023-04-07T01:46:04;101567.91;;;7.72;68.35
64298;BME280;50639;53.270;7.956;2023-04-07T01:48:29;101565.00;;;7.66;68.96
64298;BME280;50639;53.270;7.956;2023-04-07T01:50:55;101558.25;;;7.71;68.33
64298;BME280;50639;53.270;7.956;2023-04-07T01:53:22;101558.09;;;7.73;68.41
64298;BME280;50639;53.270;7.956;2023-04-07T01:55:48;101565.09;;;7.74;68.27
64298;BME280;50639;53.270;7.956;2023-04-07T01:58:14;101564.06;;;7.75;68.65
64298;BME280;50639;53.270;7.956;2023-04-07T02:00:41;101562.09;;;7.77;68.84
64298;BME280;50639;53.270;7.956;2023-04-07T02:03:16;101556.94;;;7.75;68.60
64298;BME280;50639;53.270;7.956;2023-04-07T02:05:49;101558.31;;;7.79;68.04
64298;BME280;50639;53.270;7.956;2023-04-07T02:08:18;101561.13;;;7.78;68.30
64298;BME280;50639;53.270;7.956;2023-04-07T02:10:47;101554.97;;;7.77;68.16
64298;BME280;50639;53.270;7.956;2023-04-07T02:13:16;101555.50;;;7.81;67.45
64298;BME280;50639;53.270;7.956;2023-04-07T02:15:43;101559.00;;;7.81;67.81
64298;BME280;50639;53.270;7.956;2023-04-07T02:18:12;101559.16;;;7.80;67.85
64298;BME280;50639;53.270;7.956;2023-04-07T02:20:37;101562.25;;;7.75;68.45
64298;BME280;50639;53.270;7.956;2023-04-07T02:23:07;101562.44;;;7.74;67.78
64298;BME280;50639;53.270;7.956;2023-04-07T02:25:34;101562.25;;;7.75;67.79
64298;BME280;50639;53.270;7.956;2023-04-07T02:28:02;101563.22;;;7.74;67.22
64298;BME280;50639;53.270;7.956;2023-04-07T02:30:28;101556.72;;;7.69;67.47
64298;BME280;50639;53.270;7.956;2023-04-07T02:32:54;101558.69;;;7.67;66.76
64298;BME280;50639;53.270;7.956;2023-04-07T02:35:20;101563.34;;;7.65;66.50
64298;BME280;50639;53.270;7.956;2023-04-07T02:37:46;101564.41;;;7.54;66.89
64298;BME280;50639;53.270;7.956;2023-04-07T02:40:12;101562.72;;;7.53;65.83
64298;BME280;50639;53.270;7.956;2023-04-07T02:42:38;101559.94;;;7.37;65.57
64298;BME280;50639;53.270;7.956;2023-04-07T02:45:05;101566.22;;;7.36;65.08
64298;BME280;50639;53.270;7.956;2023-04-07T02:47:31;101567.81;;;7.29;64.94
64298;BME280;50639;53.270;7.956;2023-04-07T02:49:56;101566.16;;;7.28;64.22
64298;BME280;50639;53.270;7.956;2023-04-07T02:52:22;101563.78;;;7.25;63.78
64298;BME280;50639;53.270;7.956;2023-04-07T02:54:48;101566.59;;;7.23;63.50
64298;BME280;50639;53.270;7.956;2023-04-07T02:57:17;101561.31;;;7.13;62.76
64298;BME280;50639;53.270;7.956;2023-04-07T02:59:43;101563.84;;;7.15;62.94
64298;BME280;50639;53.270;7.956;2023-04-07T03:02:10;101564.69;;;7.15;62.65
64298;BME280;50639;53.270;7.956;2023-04-07T03:04:36;101571.97;;;7.13;62.40
64298;BME280;50639;53.270;7.956;2023-04-07T03:07:01;101567.25;;;7.07;63.09
64298;BME280;50639;53.270;7.956;2023-04-07T03:09:29;101563.25;;;7.03;62.32
64298;BME280;50639;53.270;7.956;2023-04-07T03:11:55;101574.53;;;7.05;62.35
64298;BME280;50639;53.270;7.956;2023-04-07T03:14:21;101573.31;;;7.00;61.92
64298;BME280;50639;53.270;7.956;2023-04-07T03:16:48;101570.66;;;7.00;61.52
64298;BME280;50639;53.270;7.956;2023-04-07T03:19:14;101570.84;;;6.89;61.26
64298;BME280;50639;53.270;7.956;2023-04-07T03:21:47;101574.91;;;6.93;61.71
64298;BME280;50639;53.270;7.956;2023-04-07T03:24:12;101568.19;;;6.89;61.54
64298;BME280;50639;53.270;7.956;2023-04-07T03:26:38;101581.03;;;6.93;60.70
64298;BME280;50639;53.270;7.956;2023-04-07T03:29:09;101569.59;;;6.93;60.70
64298;BME280;50639;53.270;7.956;2023-04-07T03:31:36;101574.91;;;6.93;60.33
64298;BME280;50639;53.270;7.956;2023-04-07T03:34:03;101568.88;;;6.91;60.63
64298;BME280;50639;53.270;7.956;2023-04-07T03:36:29;101569.59;;;6.93;60.85
64298;BME280;50639;53.270;7.956;2023-04-07T03:38:59;101564.28;;;6.93;60.88
64298;BME280;50639;53.270;7.956;2023-04-07T03:41:25;101565.63;;;6.97;60.53
64298;BME280;50639;53.270;7.956;2023-04-07T03:43:51;101566.31;;;6.99;60.41
64298;BME280;50639;53.270;7.956;2023-04-07T03:46:20;101572.34;;;7.01;59.82
64298;BME280;50639;53.270;7.956;2023-04-07T03:48:46;101567.84;;;7.01;59.73
64298;BME280;50639;53.270;7.956;2023-04-07T03:51:11;101576.53;;;7.03;59.92
64298;BME280;50639;53.270;7.956;2023-04-07T03:53:37;101572.00;;;7.04;60.16
64298;BME280;50639;53.270;7.956;2023-04-07T03:56:28;101567.72;;;7.03;59.40
64298;BME280;50639;53.270;7.956;2023-04-07T03:58:54;101572.00;;;7.04;59.64
64298;BME280;50639;53.270;7.956;2023-04-07T04:01:26;101583.66;;;7.03;59.35
64298;BME280;50639;53.270;7.956;2023-04-07T04:03:52;101589.63;;;7.05;59.31
64298;BME280;50639;53.270;7.956;2023-04-07T04:06:22;101580.69;;;7.06;59.16
64298;BME280;50639;53.270;7.956;2023-04-07T04:08:49;101583.78;;;7.01;59.81
64298;BME280;50639;53.270;7.956;2023-04-07T04:11:14;101582.97;;;7.01;59.49
64298;BME280;50639;53.270;7.956;2023-04-07T04:13:47;101581.84;;;7.03;58.88
64298;BME280;50639;53.270;7.956;2023-04-07T04:16:12;101588.28;;;7.01;58.96
64298;BME280;50639;53.270;7.956;2023-04-07T04:18:38;101586.88;;;6.97;58.82
64298;BME280;50639;53.270;7.956;2023-04-07T04:21:06;101591.13;;;6.90;59.16
64298;BME280;50639;53.270;7.956;2023-04-07T04:23:33;101594.47;;;6.92;59.34
64298;BME280;50639;53.270;7.956;2023-04-07T04:25:59;101593.78;;;6.90;59.36
64298;BME280;50639;53.270;7.956;2023-04-07T04:28:29;101588.31;;;6.91;59.88
64298;BME280;50639;53.270;7.956;2023-04-07T04:30:55;101592.22;;;6.87;60.22
64298;BME280;50639;53.270;7.956;2023-04-07T04:33:21;101597.88;;;6.84;59.83
64298;BME280;50639;53.270;7.956;2023-04-07T04:35:55;101591.25;;;6.88;59.92
64298;BME280;50639;53.270;7.956;2023-04-07T04:38:21;101595.06;;;6.86;60.13
64298;BME280;50639;53.270;7.956;2023-04-07T04:41:10;101598.84;;;6.83;60.03
64298;BME280;50639;53.270;7.956;2023-04-07T04:43:35;101598.97;;;6.82;59.65
64298;BME280;50639;53.270;7.956;2023-04-07T04:46:02;101605.28;;;6.80;59.38
64298;BME280;50639;53.270;7.956;2023-04-07T04:48:33;101599.44;;;6.77;59.52
64298;BME280;50639;53.270;7.956;2023-04-07T04:50:58;101607.09;;;6.80;59.46
64298;BME280;50639;53.270;7.956;2023-04-07T04:53:23;101609.88;;;6.78;59.51
64298;BME280;50639;53.270;7.956;2023-04-07T04:55:54;101610.59;;;6.80;59.17
64298;BME280;50639;53.270;7.956;2023-04-07T04:58:24;101611.19;;;6.74;58.81
64298;BME280;50639;53.270;7.956;2023-04-07T05:00:54;101611.19;;;6.74;58.76
64298;BME280;50639;53.270;7.956;2023-04-07T05:03:28;101610.19;;;6.75;58.29
64298;BME280;50639;53.270;7.956;2023-04-07T05:05:56;101618.84;;;6.77;57.97
64298;BME280;50639;53.270;7.956;2023-04-07T05:08:22;101617.72;;;6.80;58.33
64298;BME280;50639;53.270;7.956;2023-04-07T05:10:48;101614.06;;;6.81;57.71
64298;BME280;50639;53.270;7.956;2023-04-07T05:13:17;101627.63;;;6.78;58.50
64298;BME280;50639;53.270;7.956;2023-04-07T05:15:44;101628.22;;;6.72;57.46
64298;BME280;50639;53.270;7.956;2023-04-07T05:18:11;101625.56;;;6.72;57.71
64298;BME280;50639;53.270;7.956;2023-04-07T05:20:37;101625.56;;;6.72;58.11
64298;BME280;50639;53.270;7.956;2023-04-07T05:23:03;101639.00;;;6.70;58.21
64298;BME280;50639;53.270;7.956;2023-04-07T05:25:31;101642.91;;;6.76;58.61
64298;BME280;50639;53.270;7.956;2023-04-07T05:28:01;101638.94;;;6.80;58.40
64298;BME280;50639;53.270;7.956;2023-04-07T05:30:27;101638.81;;;6.82;58.00
64298;BME280;50639;53.270;7.956;2023-04-07T05:32:52;101643.16;;;6.83;57.55
64298;BME280;50639;53.270;7.956;2023-04-07T05:35:38;101638.13;;;6.79;57.91
64298;BME280;50639;53.270;7.956;2023-04-07T05:38:04;101649.16;;;6.85;57.49
64298;BME280;50639;53.270;7.956;2023-04-07T05:40:31;101650.84;;;6.86;57.13
64298;BME280;50639;53.270;7.956;2023-04-07T05:42:59;101646.31;;;6.86;57.28
64298;BME280;50639;53.270;7.956;2023-04-07T05:45:26;101648.28;;;6.94;56.63
64298;BME280;50639;53.270;7.956;2023-04-07T05:47:52;101647.31;;;6.95;56.45
64298;BME280;50639;53.270;7.956;2023-04-07T05:50:24;101656.88;;;7.05;55.98
64298;BME280;50639;53.270;7.956;2023-04-07T05:52:50;101647.19;;;7.14;58.01
64298;BME280;50639;53.270;7.956;2023-04-07T05:55:22;101658.75;;;7.23;56.05
64298;BME280;50639;53.270;7.956;2023-04-07T05:57:48;101662.78;;;7.27;55.69
64298;BME280;50639;53.270;7.956;2023-04-07T06:00:17;101671.38;;;7.21;54.59
64298;BME280;50639;53.270;7.956;2023-04-07T06:02:51;101672.03;;;7.23;54.58
64298;BME280;50639;53.270;7.956;2023-04-07T06:05:18;101667.56;;;7.23;55.19
64298;BME280;50639;53.270;7.956;2023-04-07T06:07:46;101666.88;;;7.21;54.89
64298;BME280;50639;53.270;7.956;2023-04-07T06:10:14;101665.44;;;7.27;54.39
64298;BME280;50639;53.270;7.956;2023-04-07T06:12:39;101668.94;;;7.27;53.66
64298;BME280;50639;53.270;7.956;2023-04-07T06:15:05;101670.91;;;7.25;54.53
64298;BME280;50639;53.270;7.956;2023-04-07T06:17:31;101682.22;;;7.27;54.14
64298;BME280;50639;53.270;7.956;2023-04-07T06:19:56;101685.31;;;7.23;53.63
64298;BME280;50639;53.270;7.956;2023-04-07T06:22:22;101689.59;;;7.33;53.67
64298;BME280;50639;53.270;7.956;2023-04-07T06:24:48;101693.66;;;7.37;54.10
64298;BME280;50639;53.270;7.956;2023-04-07T06:27:13;101689.06;;;7.30;54.19
64298;BME280;50639;53.270;7.956;2023-04-07T06:29:39;101692.50;;;7.40;54.08
64298;BME280;50639;53.270;7.956;2023-04-07T06:32:05;101700.50;;;7.30;54.15
64298;BME280;50639;53.270;7.956;2023-04-07T06:34:31;101699.94;;;7.36;54.28
64298;BME280;50639;53.270;7.956;2023-04-07T06:36:56;101710.56;;;7.36;53.74
64298;BME280;50639;53.270;7.956;2023-04-07T06:39:22;101705.34;;;7.44;53.87
64298;BME280;50639;53.270;7.956;2023-04-07T06:41:47;101715.28;;;7.42;53.66
64298;BME280;50639;53.270;7.956;2023-04-07T06:44:13;101717.16;;;7.32;54.09
64298;BME280;50639;53.270;7.956;2023-04-07T06:46:38;101719.44;;;7.27;54.23
64298;BME280;50639;53.270;7.956;2023-04-07T06:49:04;101718.72;;;7.25;54.58
64298;BME280;50639;53.270;7.956;2023-04-07T06:51:29;101721.50;;;7.33;55.13
64298;BME280;50639;53.270;7.956;2023-04-07T06:53:56;101730.69;;;7.39;55.20
64298;BME280;50639;53.270;7.956;2023-04-07T06:56:21;101727.75;;;7.42;55.07
64298;BME280;50639;53.270;7.956;2023-04-07T06:58:47;101737.41;;;7.43;55.09
64298;BME280;50639;53.270;7.956;2023-04-07T07:01:13;101737.13;;;7.46;54.53
64298;BME280;50639;53.270;7.956;2023-04-07T07:03:38;101735.53;;;7.53;55.19
64298;BME280;50639;53.270;7.956;2023-04-07T07:06:04;101738.88;;;7.55;55.42
64298;BME280;50639;53.270;7.956;2023-04-07T07:08:29;101733.09;;;7.60;55.85
64298;BME280;50639;53.270;7.956;2023-04-07T07:10:55;101740.38;;;7.57;55.29
64298;BME280;50639;53.270;7.956;2023-04-07T07:13:23;101738.84;;;7.65;55.87
64298;BME280;50639;53.270;7.956;2023-04-07T07:15:50;101747.75;;;7.73;56.07
64298;BME280;50639;53.270;7.956;2023-04-07T07:18:16;101748.66;;;7.82;55.33
64298;BME280;50639;53.270;7.956;2023-04-07T07:20:42;101751.94;;;7.93;55.76
64298;BME280;50639;53.270;7.956;2023-04-07T07:23:07;101762.13;;;7.98;55.33
64298;BME280;50639;53.270;7.956;2023-04-07T07:25:33;101764.66;;;8.00;55.10
64298;BME280;50639;53.270;7.956;2023-04-07T07:27:58;101766.16;;;8.02;54.92
64298;BME280;50639;53.270;7.956;2023-04-07T07:30:24;101770.19;;;8.06;55.60
64298;BME280;50639;53.270;7.956;2023-04-07T07:32:50;101772.09;;;8.14;55.50
64298;BME280;50639;53.270;7.956;2023-04-07T07:35:18;101774.75;;;8.14;54.86
64298;BME280;50639;53.270;7.956;2023-04-07T07:37:43;101781.34;;;8.10;55.29
64298;BME280;50639;53.270;7.956;2023-04-07T07:40:09;101768.91;;;8.28;54.90
64298;BME280;50639;53.270;7.956;2023-04-07T07:42:36;101782.06;;;8.29;54.70
64298;BME280;50639;53.270;7.956;2023-04-07T07:45:01;101781.38;;;8.27;55.47
64298;BME280;50639;53.270;7.956;2023-04-07T07:47:27;101779.28;;;8.31;55.96
64298;BME280;50639;53.270;7.956;2023-04-07T07:49:53;101785.53;;;8.40;55.44
64298;BME280;50639;53.270;7.956;2023-04-07T07:52:18;101785.59;;;8.48;55.61
64298;BME280;50639;53.270;7.956;2023-04-07T07:54:45;101790.22;;;8.63;55.48
64298;BME280;50639;53.270;7.956;2023-04-07T07:57:11;101787.78;;;8.70;54.95
64298;BME280;50639;53.270;7.956;2023-04-07T07:59:37;101788.84;;;8.77;55.68
64298;BME280;50639;53.270;7.956;2023-04-07T08:02:02;101800.00;;;8.81;54.77
64298;BME280;50639;53.270;7.956;2023-04-07T08:04:28;101787.53;;;8.81;55.13
64298;BME280;50639;53.270;7.956;2023-04-07T08:06:53;101799.06;;;8.90;54.40
64298;BME280;50639;53.270;7.956;2023-04-07T08:09:19;101797.63;;;8.95;55.26
64298;BME280;50639;53.270;7.956;2023-04-07T08:11:45;101807.81;;;9.00;54.57
64298;BME280;50639;53.270;7.956;2023-04-07T08:14:12;101806.00;;;9.00;54.81
64298;BME280;50639;53.270;7.956;2023-04-07T08:16:38;101803.31;;;9.00;54.75
64298;BME280;50639;53.270;7.956;2023-04-07T08:19:03;101809.59;;;9.17;54.92
64298;BME280;50639;53.270;7.956;2023-04-07T08:21:28;101805.69;;;9.29;54.61
64298;BME280;50639;53.270;7.956;2023-04-07T08:23:54;101792.53;;;9.36;54.56
64298;BME280;50639;53.270;7.956;2023-04-07T08:26:20;101798.59;;;9.46;54.21
64298;BME280;50639;53.270;7.956;2023-04-07T08:28:46;101809.31;;;9.54;53.66
64298;BME280;50639;53.270;7.956;2023-04-07T08:31:11;101808.66;;;9.60;53.52
64298;BME280;50639;53.270;7.956;2023-04-07T08:33:37;101815.38;;;9.64;53.47
64298;BME280;50639;53.270;7.956;2023-04-07T08:36:03;101806.88;;;9.69;53.66
64298;BME280;50639;53.270;7.956;2023-04-07T08:38:28;101818.06;;;9.72;53.43
64298;BME280;50639;53.270;7.956;2023-04-07T08:41:03;101822.13;;;9.85;53.00
64298;BME280;50639;53.270;7.956;2023-04-07T08:43:31;101807.13;;;9.92;52.50
64298;BME280;50639;53.270;7.956;2023-04-07T08:45:58;101815.31;;;9.90;52.13
64298;BME280;50639;53.270;7.956;2023-04-07T08:48:25;101813.97;;;9.94;52.38
64298;BME280;50639;53.270;7.956;2023-04-07T08:50:59;101817.16;;;9.98;51.95
64298;BME280;50639;53.270;7.956;2023-04-07T08:53:35;101816.38;;;10.13;52.70
64298;BME280;50639;53.270;7.956;2023-04-07T08:56:03;101809.06;;;10.24;51.81
64298;BME280;50639;53.270;7.956;2023-04-07T08:58:29;101814.09;;;10.18;51.63
64298;BME280;50639;53.270;7.956;2023-04-07T09:00:55;101807.25;;;10.32;51.23
64298;BME280;50639;53.270;7.956;2023-04-07T09:03:21;101819.94;;;10.38;51.71
64298;BME280;50639;53.270;7.956;2023-04-07T09:05:48;101815.13;;;10.50;52.57
64298;BME280;50639;53.270;7.956;2023-04-07T09:08:15;101813.13;;;10.52;51.73
64298;BME280;50639;53.270;7.956;2023-04-07T09:10:41;101816.31;;;10.64;52.31
64298;BME280;50639;53.270;7.956;2023-04-07T09:13:06;101817.16;;;10.72;51.65
64298;BME280;50639;53.270;7.956;2023-04-07T09:15:32;101817.31;;;10.79;51.91
64298;BME280;50639;53.270;7.956;2023-04-07T09:17:58;101815.97;;;10.91;50.75
64298;BME280;50639;53.270;7.956;2023-04-07T09:20:24;101817.31;;;10.95;50.34
64298;BME280;50639;53.270;7.956;2023-04-07T09:22:50;101814.78;;;11.10;50.56
64298;BME280;50639;53.270;7.956;2023-04-07T09:25:20;101821.31;;;10.99;48.86
64298;BME280;50639;53.270;7.956;2023-04-07T09:30:26;101821.97;;;11.25;47.35
64298;BME280;50639;53.270;7.956;2023-04-07T09:32:52;101815.56;;;11.35;48.20
64298;BME280;50639;53.270;7.956;2023-04-07T09:35:18;101822.22;;;11.47;48.02
64298;BME280;50639;53.270;7.956;2023-04-07T09:38:00;101820.53;;;11.54;47.04
64298;BME280;50639;53.270;7.956;2023-04-07T09:40:26;101819.19;;;11.58;47.80
64298;BME280;50639;53.270;7.956;2023-04-07T09:42:51;101827.34;;;11.64;46.96
64298;BME280;50639;53.270;7.956;2023-04-07T09:45:27;101821.00;;;11.65;45.97
64298;BME280;50639;53.270;7.956;2023-04-07T09:47:53;101826.34;;;11.65;43.45
64298;BME280;50639;53.270;7.956;2023-04-07T09:50:38;101823.81;;;11.80;42.33
64298;BME280;50639;53.270;7.956;2023-04-07T09:53:04;101825.47;;;11.81;41.56
64298;BME280;50639;53.270;7.956;2023-04-07T09:55:30;101831.00;;;11.80;40.96
64298;BME280;50639;53.270;7.956;2023-04-07T09:57:56;101823.78;;;11.88;41.21
64298;BME280;50639;53.270;7.956;2023-04-07T10:00:22;101828.13;;;11.89;40.80
64298;BME280;50639;53.270;7.956;2023-04-07T10:02:48;101820.41;;;11.94;41.46
64298;BME280;50639;53.270;7.956;2023-04-07T10:05:15;101811.66;;;12.00;42.37
64298;BME280;50639;53.270;7.956;2023-04-07T10:07:42;101822.59;;;12.22;40.44
64298;BME280;50639;53.270;7.956;2023-04-07T10:10:07;101821.19;;;12.34;41.43
64298;BME280;50639;53.270;7.956;2023-04-07T10:12:36;101819.16;;;12.36;40.01
64298;BME280;50639;53.270;7.956;2023-04-07T10:15:01;101822.69;;;12.36;39.64
64298;BME280;50639;53.270;7.956;2023-04-07T10:17:28;101827.31;;;12.42;41.64
64298;BME280;50639;53.270;7.956;2023-04-07T10:19:57;101819.16;;;12.59;40.09
64298;BME280;50639;53.270;7.956;2023-04-07T10:22:24;101814.28;;;12.62;39.70
64298;BME280;50639;53.270;7.956;2023-04-07T10:27:19;101833.75;;;12.79;38.64
64298;BME280;50639;53.270;7.956;2023-04-07T10:29:49;101827.47;;;12.87;38.09
64298;BME280;50639;53.270;7.956;2023-04-07T10:32:15;101833.03;;;12.85;38.64
64298;BME280;50639;53.270;7.956;2023-04-07T10:37:18;101835.38;;;13.03;37.54
64298;BME280;50639;53.270;7.956;2023-04-07T10:45:09;101846.78;;;13.05;36.53
64298;BME280;50639;53.270;7.956;2023-04-07T10:50:24;101848.41;;;13.14;38.23
64298;BME280;50639;53.270;7.956;2023-04-07T10:53:12;101852.75;;;13.15;36.08
64298;BME280;50639;53.270;7.956;2023-04-07T10:55:45;101857.94;;;13.16;36.78
64298;BME280;50639;53.270;7.956;2023-04-07T10:58:21;101853.78;;;13.29;35.53
64298;BME280;50639;53.270;7.956;2023-04-07T11:03:56;101847.88;;;13.33;35.69
64298;BME280;50639;53.270;7.956;2023-04-07T11:06:22;101852.59;;;13.31;36.38
64298;BME280;50639;53.270;7.956;2023-04-07T11:08:48;101845.09;;;13.41;35.92
64298;BME280;50639;53.270;7.956;2023-04-07T11:11:21;101855.97;;;13.63;35.67
64298;BME280;50639;53.270;7.956;2023-04-07T11:13:59;101860.66;;;13.75;35.58
64298;BME280;50639;53.270;7.956;2023-04-07T11:16:34;101858.06;;;13.67;36.14
64298;BME280;50639;53.270;7.956;2023-04-07T11:19:00;101860.00;;;13.73;35.89
64298;BME280;50639;53.270;7.956;2023-04-07T11:21:26;101853.72;;;13.96;37.43
64298;BME280;50639;53.270;7.956;2023-04-07T11:23:52;101866.84;;;14.05;34.93
64298;BME280;50639;53.270;7.956;2023-04-07T11:26:17;101860.94;;;13.95;35.17
64298;BME280;50639;53.270;7.956;2023-04-07T11:28:51;101867.22;;;14.02;35.35
64298;BME280;50639;53.270;7.956;2023-04-07T11:31:21;101864.91;;;13.99;35.13
64298;BME280;50639;53.270;7.956;2023-04-07T11:33:54;101869.03;;;14.16;35.46
64298;BME280;50639;53.270;7.956;2023-04-07T11:38:53;101870.44;;;14.42;34.35
64298;BME280;50639;53.270;7.956;2023-04-07T11:41:18;101861.03;;;14.38;34.79
64298;BME280;50639;53.270;7.956;2023-04-07T11:43:44;101877.34;;;14.36;34.41
64298;BME280;50639;53.270;7.956;2023-04-07T11:46:17;101871.03;;;14.44;33.99
64298;BME280;50639;53.270;7.956;2023-04-07T11:48:44;101871.97;;;14.51;33.58
64298;BME280;50639;53.270;7.956;2023-04-07T11:51:17;101872.34;;;14.48;33.68
64298;BME280;50639;53.270;7.956;2023-04-07T11:53:44;101876.06;;;14.47;33.09
64298;BME280;50639;53.270;7.956;2023-04-07T11:56:13;101858.78;;;14.56;33.84
64298;BME280;50639;53.270;7.956;2023-04-07T11:58:49;101876.94;;;14.54;32.75
64298;BME280;50639;53.270;7.956;2023-04-07T12:01:15;101887.03;;;14.66;32.80
64298;BME280;50639;53.270;7.956;2023-04-07T12:04:01;101883.72;;;14.86;33.31
64298;BME280;50639;53.270;7.956;2023-04-07T12:06:28;101878.38;;;14.92;33.31
64298;BME280;50639;53.270;7.956;2023-04-07T12:08:54;101883.50;;;15.09;34.02
64298;BME280;50639;53.270;7.956;2023-04-07T12:11:20;101888.50;;;15.12;32.80
64298;BME280;50639;53.270;7.956;2023-04-07T12:13:45;101892.22;;;15.11;32.82
64298;BME280;50639;53.270;7.956;2023-04-07T12:16:11;101889.91;;;15.07;33.11
64298;BME280;50639;53.270;7.956;2023-04-07T12:18:36;101891.22;;;15.18;31.34
64298;BME280;50639;53.270;7.956;2023-04-07T12:21:02;101883.81;;;14.99;32.08
64298;BME280;50639;53.270;7.956;2023-04-07T12:23:28;101886.88;;;14.96;31.91
64298;BME280;50639;53.270;7.956;2023-04-07T12:25:53;101893.88;;;14.90;32.85
64298;BME280;50639;53.270;7.956;2023-04-07T12:28:19;101885.34;;;14.87;32.54
64298;BME280;50639;53.270;7.956;2023-04-07T12:30:44;101886.88;;;14.96;32.48
64298;BME280;50639;53.270;7.956;2023-04-07T12:33:10;101892.34;;;15.02;33.02
64298;BME280;50639;53.270;7.956;2023-04-07T12:35:35;101886.19;;;15.09;32.30
64298;BME280;50639;53.270;7.956;2023-04-07T12:38:02;101888.97;;;15.22;33.96
64298;BME280;50639;53.270;7.956;2023-04-07T12:40:29;101889.09;;;15.14;32.10
64298;BME280;50639;53.270;7.956;2023-04-07T12:42:55;101888.41;;;15.26;33.74
64298;BME280;50639;53.270;7.956;2023-04-07T12:45:23;101895.03;;;15.30;32.37
64298;BME280;50639;53.270;7.956;2023-04-07T12:47:48;101892.25;;;15.17;31.11
64298;BME280;50639;53.270;7.956;2023-04-07T12:50:14;101896.66;;;15.25;32.27
64298;BME280;50639;53.270;7.956;2023-04-07T12:52:40;101894.63;;;15.27;32.43
64298;BME280;50639;53.270;7.956;2023-04-07T12:55:06;101891.66;;;15.22;32.34
64298;BME280;50639;53.270;7.956;2023-04-07T12:57:31;101901.25;;;15.31;33.17
64298;BME280;50639;53.270;7.956;2023-04-07T12:59:57;101905.09;;;15.43;32.28
64298;BME280;50639;53.270;7.956;2023-04-07T13:02:23;101902.63;;;15.48;31.31
64298;BME280;50639;53.270;7.956;2023-04-07T13:04:48;101894.94;;;15.38;32.07
64298;BME280;50639;53.270;7.956;2023-04-07T13:07:14;101902.44;;;15.22;31.56
64298;BME280;50639;53.270;7.956;2023-04-07T13:09:41;101892.41;;;15.09;32.15
64298;BME280;50639;53.270;7.956;2023-04-07T13:12:09;101899.63;;;15.30;32.48
64298;BME280;50639;53.270;7.956;2023-04-07T13:14:37;101906.72;;;15.37;32.25
64298;BME280;50639;53.270;7.956;2023-04-07T13:17:03;101894.72;;;15.40;32.64
64298;BME280;50639;53.270;7.956;2023-04-07T13:19:28;101896.81;;;15.44;32.08
64298;BME280;50639;53.270;7.956;2023-04-07T13:21:54;101891.00;;;15.41;32.10
64298;BME280;50639;53.270;7.956;2023-04-07T13:24:20;101897.22;;;15.41;31.57